createdAt,value
2018-01-12T00:00:21.946Z,1001.79
2018-01-12T00:01:31.928Z,1001.8
2018-01-12T00:02:41.385Z,1001.77
2018-01-12T00:03:51.372Z,1001.78
2018-01-12T00:05:01.088Z,1001.78
2018-01-12T00:06:10.815Z,1001.75
2018-01-12T00:07:20.802Z,1001.77
2018-01-12T00:08:30.784Z,1001.77
2018-01-12T00:09:40.233Z,1001.77
2018-01-12T00:10:50.219Z,1001.81
2018-01-12T00:12:00.211Z,1001.82
2018-01-12T00:13:09.928Z,1001.83
2018-01-12T00:14:20.008Z,1001.82
2018-01-12T00:15:29.728Z,1001.86
2018-01-12T00:16:39.443Z,1001.89
2018-01-12T00:17:49.429Z,1001.87
2018-01-12T00:18:59.142Z,1001.9
2018-01-12T00:20:09.121Z,1001.95
2018-01-12T00:21:19.109Z,1001.98
2018-01-12T00:22:28.824Z,1001.97
2018-01-12T00:23:38.008Z,1002
2018-01-12T00:24:47.991Z,1001.99
2018-01-12T00:25:57.969Z,1002
2018-01-12T00:27:07.688Z,1002.02
2018-01-12T00:28:17.410Z,1002.03
2018-01-12T00:29:27.396Z,1002.01
2018-01-12T00:30:37.376Z,1001.96
2018-01-12T00:31:46.881Z,1001.97
2018-01-12T00:32:56.862Z,1002.04
2018-01-12T00:34:06.321Z,1002.01
2018-01-12T00:35:16.042Z,1002.02
2018-01-12T00:36:25.762Z,1002.04
2018-01-12T00:37:35.745Z,1002.12
2018-01-12T00:38:45.731Z,1002.13
2018-01-12T00:39:55.714Z,1002.11
2018-01-12T00:41:05.433Z,1002.16
2018-01-12T00:42:15.415Z,1002.23
2018-01-12T00:43:25.396Z,1002.26
2018-01-12T00:44:35.110Z,1002.26
2018-01-12T00:45:44.827Z,1002.31
2018-01-12T00:46:54.541Z,1002.27
2018-01-12T00:48:03.725Z,1002.24
2018-01-12T00:49:13.757Z,1002.25
2018-01-12T00:50:23.742Z,1002.22
2018-01-12T00:51:33.460Z,1002.26
2018-01-12T00:52:43.175Z,1002.23
2018-01-12T00:53:52.890Z,1002.22
2018-01-12T00:55:02.884Z,1002.21
2018-01-12T00:56:12.597Z,1002.24
2018-01-12T00:57:22.577Z,1002.23
2018-01-12T00:58:32.029Z,1002.31
2018-01-12T00:59:42.011Z,1002.25
2018-01-12T01:00:51.465Z,1002.28
2018-01-12T01:02:01.441Z,1002.26
2018-01-12T01:03:11.159Z,1002.29
2018-01-12T01:04:20.878Z,1002.3
2018-01-12T01:05:30.927Z,1002.32
2018-01-12T01:06:40.642Z,1002.36
2018-01-12T01:07:50.355Z,1002.36
2018-01-12T01:09:00.076Z,1002.34
2018-01-12T01:10:10.056Z,1002.37
2018-01-12T01:11:20.034Z,1002.39
2018-01-12T01:12:30.013Z,1002.42
2018-01-12T01:13:39.465Z,1002.38
2018-01-12T01:14:49.496Z,1002.38
2018-01-12T01:15:59.478Z,1002.41
2018-01-12T01:17:09.458Z,1002.46
2018-01-12T01:18:19.172Z,1002.54
2018-01-12T01:19:29.156Z,1002.56
2018-01-12T01:20:39.136Z,1002.52
2018-01-12T01:21:49.119Z,1002.55
2018-01-12T01:22:59.094Z,1002.56
2018-01-12T01:24:08.868Z,1002.56
2018-01-12T01:25:18.853Z,1002.63
2018-01-12T01:26:28.839Z,1002.63
2018-01-12T01:27:38.821Z,1002.59
2018-01-12T01:28:48.804Z,1002.63
2018-01-12T01:29:58.826Z,1002.64
2018-01-12T01:31:08.546Z,1002.64
2018-01-12T01:32:18.533Z,1002.67
2018-01-12T01:33:28.249Z,1002.66
2018-01-12T01:34:37.435Z,1002.64
2018-01-12T01:35:47.513Z,1002.65
2018-01-12T01:36:57.493Z,1002.74
2018-01-12T01:38:07.473Z,1002.73
2018-01-12T01:39:17.193Z,1002.75
2018-01-12T01:40:26.908Z,1002.77
2018-01-12T01:41:36.624Z,1002.72
2018-01-12T01:42:46.605Z,1002.73
2018-01-12T01:43:56.591Z,1002.75
2018-01-12T01:45:06.573Z,1002.78
2018-01-12T01:46:16.553Z,1002.8
2018-01-12T01:47:26.272Z,1002.76
2018-01-12T01:48:36.267Z,1002.75
2018-01-12T01:49:46.260Z,1002.8
2018-01-12T01:50:56.239Z,1002.78
2018-01-12T01:52:05.960Z,1002.82
2018-01-12T01:53:15.938Z,1002.81
2018-01-12T01:54:25.922Z,1002.81
2018-01-12T01:55:35.641Z,1002.8
2018-01-12T01:56:45.622Z,1002.82
2018-01-12T01:57:55.600Z,1002.82
2018-01-12T01:59:05.316Z,1002.83
2018-01-12T02:00:15.046Z,1002.85
2018-01-12T02:01:25.025Z,1002.81
2018-01-12T02:02:35.012Z,1002.81
2018-01-12T02:03:44.734Z,1002.81
2018-01-12T02:04:54.787Z,1002.85
2018-01-12T02:06:04.769Z,1002.86
2018-01-12T02:07:14.750Z,1002.94
2018-01-12T02:08:24.727Z,1002.94
2018-01-12T02:09:34.447Z,1002.96
2018-01-12T02:10:44.529Z,1002.95
2018-01-12T02:11:54.504Z,1003.03
2018-01-12T02:13:04.504Z,1003.02
2018-01-12T02:14:14.484Z,1003.09
2018-01-12T02:15:24.461Z,1003.13
2018-01-12T02:16:34.439Z,1003.14
2018-01-12T02:17:44.424Z,1003.15
2018-01-12T02:18:54.413Z,1003.19
2018-01-12T02:20:04.393Z,1003.13
2018-01-12T02:21:14.382Z,1003.18
2018-01-12T02:22:24.151Z,1003.18
2018-01-12T02:23:34.132Z,1003.16
2018-01-12T02:24:44.114Z,1003.19
2018-01-12T02:25:53.828Z,1003.15
2018-01-12T02:27:03.807Z,1003.23
2018-01-12T02:28:13.254Z,1003.26
2018-01-12T02:29:22.703Z,1003.26
2018-01-12T02:30:32.688Z,1003.28
2018-01-12T02:31:42.673Z,1003.3
2018-01-12T02:32:52.665Z,1003.28
2018-01-12T02:34:02.697Z,1003.27
2018-01-12T02:35:12.145Z,1003.3
2018-01-12T02:36:22.126Z,1003.27
2018-01-12T02:37:32.110Z,1003.29
2018-01-12T02:38:42.096Z,1003.32
2018-01-12T02:39:52.089Z,1003.3
2018-01-12T02:41:02.091Z,1003.35
2018-01-12T02:42:11.815Z,1003.35
2018-01-12T02:43:21.827Z,1003.33
2018-01-12T02:44:31.548Z,1003.33
2018-01-12T02:45:41.578Z,1003.32
2018-01-12T02:46:51.618Z,1003.35
2018-01-12T02:48:01.600Z,1003.34
2018-01-12T02:49:11.652Z,1003.35
2018-01-12T02:50:21.637Z,1003.36
2018-01-12T02:51:31.630Z,1003.35
2018-01-12T02:52:41.349Z,1003.39
2018-01-12T02:53:51.324Z,1003.39
2018-01-12T02:55:01.324Z,1003.35
2018-01-12T02:56:10.779Z,1003.37
2018-01-12T02:57:20.509Z,1003.35
2018-01-12T02:58:30.223Z,1003.35
2018-01-12T02:59:39.939Z,1003.36
2018-01-12T03:00:49.938Z,1003.34
2018-01-12T03:01:59.926Z,1003.38
2018-01-12T03:03:09.912Z,1003.38
2018-01-12T03:04:19.895Z,1003.37
2018-01-12T03:05:29.626Z,1003.36
2018-01-12T03:06:39.603Z,1003.4
2018-01-12T03:07:49.583Z,1003.42
2018-01-12T03:08:59.617Z,1003.43
2018-01-12T03:10:09.594Z,1003.41
2018-01-12T03:11:19.573Z,1003.44
2018-01-12T03:12:29.553Z,1003.44
2018-01-12T03:13:39.528Z,1003.44
2018-01-12T03:14:49.290Z,1003.44
2018-01-12T03:15:59.008Z,1003.46
2018-01-12T03:17:08.991Z,1003.46
2018-01-12T03:18:18.969Z,1003.46
2018-01-12T03:19:28.955Z,1003.46
2018-01-12T03:20:38.936Z,1003.47
2018-01-12T03:21:48.915Z,1003.48
2018-01-12T03:22:58.894Z,1003.44
2018-01-12T03:24:08.879Z,1003.47
2018-01-12T03:25:18.868Z,1003.51
2018-01-12T03:26:28.997Z,1003.52
2018-01-12T03:27:39.027Z,1003.52
2018-01-12T03:28:49.010Z,1003.47
2018-01-12T03:29:58.761Z,1003.53
2018-01-12T03:31:08.223Z,1003.52
2018-01-12T03:32:18.220Z,1003.51
2018-01-12T03:33:27.669Z,1003.53
2018-01-12T03:34:37.648Z,1003.49
2018-01-12T03:35:47.632Z,1003.5
2018-01-12T03:36:57.612Z,1003.48
2018-01-12T03:38:07.597Z,1003.5
2018-01-12T03:39:17.577Z,1003.5
2018-01-12T03:40:27.353Z,1003.47
2018-01-12T03:41:36.801Z,1003.48
2018-01-12T03:42:46.784Z,1003.5
2018-01-12T03:43:56.759Z,1003.56
2018-01-12T03:45:06.767Z,1003.58
2018-01-12T03:46:16.746Z,1003.56
2018-01-12T03:47:26.728Z,1003.61
2018-01-12T03:48:36.446Z,1003.6
2018-01-12T03:49:46.427Z,1003.64
2018-01-12T03:50:56.404Z,1003.73
2018-01-12T03:52:06.389Z,1003.7
2018-01-12T03:53:15.863Z,1003.71
2018-01-12T03:54:25.314Z,1003.73
2018-01-12T03:55:35.029Z,1003.7
2018-01-12T03:56:45.012Z,1003.69
2018-01-12T03:57:54.991Z,1003.66
2018-01-12T03:59:04.976Z,1003.66
2018-01-12T04:04:39.628Z,1003.63
2018-01-12T04:05:49.605Z,1003.66
2018-01-12T04:06:59.583Z,1003.65
2018-01-12T04:08:09.299Z,1003.6
2018-01-12T04:09:19.378Z,1003.68
2018-01-12T04:10:29.354Z,1003.66
2018-01-12T04:11:39.070Z,1003.7
2018-01-12T04:12:49.047Z,1003.69
2018-01-12T04:13:59.025Z,1003.66
2018-01-12T04:15:09.005Z,1003.65
2018-01-12T04:16:18.985Z,1003.65
2018-01-12T04:17:28.696Z,1003.65
2018-01-12T04:18:38.147Z,1003.63
2018-01-12T04:19:48.133Z,1003.63
2018-01-12T04:20:58.215Z,1003.62
2018-01-12T04:22:08.201Z,1003.62
2018-01-12T04:23:18.179Z,1003.61
2018-01-12T04:24:28.161Z,1003.6
2018-01-12T04:25:38.143Z,1003.61
2018-01-12T04:26:48.120Z,1003.64
2018-01-12T04:27:57.842Z,1003.65
2018-01-12T04:29:07.826Z,1003.66
2018-01-12T04:30:17.807Z,1003.6
2018-01-12T04:31:27.796Z,1003.6
2018-01-12T04:32:37.506Z,1003.6
2018-01-12T04:33:47.216Z,1003.61
2018-01-12T04:34:57.203Z,1003.58
2018-01-12T04:36:07.192Z,1003.58
2018-01-12T04:37:16.903Z,1003.59
2018-01-12T04:38:26.884Z,1003.67
2018-01-12T04:39:36.595Z,1003.69
2018-01-12T04:40:46.575Z,1003.71
2018-01-12T04:41:56.020Z,1003.73
2018-01-12T04:43:06.004Z,1003.73
2018-01-12T04:44:15.984Z,1003.75
2018-01-12T04:45:25.962Z,1003.74
2018-01-12T04:46:35.679Z,1003.78
2018-01-12T04:47:45.656Z,1003.78
2018-01-12T04:48:55.631Z,1003.78
2018-01-12T04:50:05.612Z,1003.85
2018-01-12T04:51:15.593Z,1003.88
2018-01-12T04:52:25.576Z,1003.88
2018-01-12T04:53:35.561Z,1003.93
2018-01-12T04:54:45.540Z,1003.94
2018-01-12T04:55:55.616Z,1003.97
2018-01-12T04:57:05.341Z,1003.99
2018-01-12T04:58:15.075Z,1003.96
2018-01-12T04:59:25.074Z,1003.96
2018-01-12T05:00:34.813Z,1003.97
2018-01-12T05:01:44.816Z,1003.96
2018-01-12T05:02:54.816Z,1003.97
2018-01-12T05:04:04.550Z,1003.97
2018-01-12T05:05:14.548Z,1004
2018-01-12T05:06:24.551Z,1003.97
2018-01-12T05:07:34.599Z,1003.96
2018-01-12T05:08:44.598Z,1003.95
2018-01-12T05:09:54.065Z,1003.98
2018-01-12T05:11:04.071Z,1003.98
2018-01-12T05:12:13.804Z,1004
2018-01-12T05:13:23.587Z,1004.01
2018-01-12T05:14:33.320Z,1003.98
2018-01-12T05:15:43.052Z,1004.02
2018-01-12T05:16:52.785Z,1004.03
2018-01-12T05:18:02.519Z,1004.05
2018-01-12T05:19:12.525Z,1004.05
2018-01-12T05:20:22.525Z,1004.04
2018-01-12T05:21:32.527Z,1004.08
2018-01-12T05:22:42.531Z,1004.02
2018-01-12T05:23:52.573Z,1004.04
2018-01-12T05:25:02.292Z,1004.04
2018-01-12T05:26:12.011Z,1004.05
2018-01-12T05:27:21.990Z,1004.06
2018-01-12T05:28:31.967Z,1004.08
2018-01-12T05:29:41.680Z,1004.1
2018-01-12T05:30:51.656Z,1004.1
2018-01-12T05:32:01.635Z,1004.11
2018-01-12T05:33:11.356Z,1004.15
2018-01-12T05:34:21.341Z,1004.12
2018-01-12T05:35:31.054Z,1004.14
2018-01-12T05:36:40.772Z,1004.17
2018-01-12T05:37:50.748Z,1004.14
2018-01-12T05:39:00.731Z,1004.18
2018-01-12T05:40:10.722Z,1004.22
2018-01-12T05:41:20.699Z,1004.25
2018-01-12T05:42:30.678Z,1004.25
2018-01-12T05:43:40.125Z,1004.29
2018-01-12T05:44:49.851Z,1004.24
2018-01-12T05:45:59.832Z,1004.22
2018-01-12T05:47:09.821Z,1004.23
2018-01-12T05:48:19.541Z,1004.24
2018-01-12T05:49:29.521Z,1004.24
2018-01-12T05:50:39.499Z,1004.2
2018-01-12T05:51:49.500Z,1004.18
2018-01-12T05:52:59.486Z,1004.25
2018-01-12T05:54:09.525Z,1004.17
2018-01-12T05:55:19.249Z,1004.22
2018-01-12T05:56:29.227Z,1004.25
2018-01-12T05:57:38.947Z,1004.29
2018-01-12T05:58:48.927Z,1004.29
2018-01-12T05:59:58.914Z,1004.3
2018-01-12T06:01:08.370Z,1004.31
2018-01-12T06:02:18.349Z,1004.29
2018-01-12T06:03:28.330Z,1004.34
2018-01-12T06:04:38.306Z,1004.26
2018-01-12T06:05:47.805Z,1004.24
2018-01-12T06:06:57.790Z,1004.23
2018-01-12T06:08:07.506Z,1004.22
2018-01-12T06:09:17.226Z,1004.27
2018-01-12T06:10:27.210Z,1004.28
2018-01-12T06:11:37.204Z,1004.22
2018-01-12T06:12:47.182Z,1004.25
2018-01-12T06:13:57.174Z,1004.2
2018-01-12T06:15:07.158Z,1004.18
2018-01-12T06:16:17.149Z,1004.21
2018-01-12T06:17:27.133Z,1004.2
2018-01-12T06:18:36.849Z,1004.22
2018-01-12T06:19:46.829Z,1004.2
2018-01-12T06:20:56.549Z,1004.23
2018-01-12T06:22:06.270Z,1004.23
2018-01-12T06:23:16.266Z,1004.29
2018-01-12T06:24:26.249Z,1004.3
2018-01-12T06:25:36.231Z,1004.36
2018-01-12T06:26:46.215Z,1004.42
2018-01-12T06:27:56.202Z,1004.44
2018-01-12T06:29:05.967Z,1004.43
2018-01-12T06:30:15.953Z,1004.49
2018-01-12T06:31:25.941Z,1004.47
2018-01-12T06:32:35.926Z,1004.46
2018-01-12T06:33:45.919Z,1004.45
2018-01-12T06:34:55.913Z,1004.45
2018-01-12T06:36:05.634Z,1004.5
2018-01-12T06:37:15.356Z,1004.53
2018-01-12T06:38:24.807Z,1004.5
2018-01-12T06:39:34.849Z,1004.53
2018-01-12T06:40:44.667Z,1004.53
2018-01-12T06:41:54.646Z,1004.54
2018-01-12T06:43:04.632Z,1004.56
2018-01-12T06:44:14.612Z,1004.55
2018-01-12T06:45:24.335Z,1004.52
2018-01-12T06:46:34.055Z,1004.54
2018-01-12T06:47:44.031Z,1004.5
2018-01-12T06:48:54.012Z,1004.56
2018-01-12T06:50:03.729Z,1004.54
2018-01-12T06:51:13.717Z,1004.53
2018-01-12T06:52:23.439Z,1004.57
2018-01-12T06:53:33.478Z,1004.57
2018-01-12T06:54:43.467Z,1004.63
2018-01-12T06:55:53.451Z,1004.64
2018-01-12T06:57:03.430Z,1004.64
2018-01-12T06:58:13.415Z,1004.65
2018-01-12T06:59:23.169Z,1004.65
2018-01-12T07:00:32.916Z,1004.69
2018-01-12T07:01:42.900Z,1004.73
2018-01-12T07:02:52.882Z,1004.71
2018-01-12T07:04:02.872Z,1004.76
2018-01-12T07:05:12.860Z,1004.76
2018-01-12T07:06:22.860Z,1004.71
2018-01-12T07:07:32.850Z,1004.7
2018-01-12T07:08:42.829Z,1004.72
2018-01-12T07:09:52.641Z,1004.76
2018-01-12T07:11:02.629Z,1004.78
2018-01-12T07:12:12.610Z,1004.78
2018-01-12T07:13:22.328Z,1004.83
2018-01-12T07:14:32.040Z,1004.79
2018-01-12T07:15:42.023Z,1004.86
2018-01-12T07:16:51.477Z,1004.88
2018-01-12T07:18:01.461Z,1004.89
2018-01-12T07:19:11.456Z,1004.91
2018-01-12T07:20:21.440Z,1004.94
2018-01-12T07:21:31.418Z,1004.98
2018-01-12T07:22:41.151Z,1004.96
2018-01-12T07:23:51.146Z,1004.95
2018-01-12T07:25:00.865Z,1005
2018-01-12T07:26:10.585Z,1005.04
2018-01-12T07:27:20.628Z,1005.04
2018-01-12T07:28:29.811Z,1005.03
2018-01-12T07:29:39.279Z,1005.06
2018-01-12T07:30:49.260Z,1005.07
2018-01-12T07:31:59.236Z,1005.07
2018-01-12T07:33:08.956Z,1005.13
2018-01-12T07:34:18.669Z,1005.1
2018-01-12T07:35:28.388Z,1005.16
2018-01-12T07:36:37.836Z,1005.17
2018-01-12T07:37:47.551Z,1005.19
2018-01-12T07:38:57.538Z,1005.15
2018-01-12T07:40:07.550Z,1005.17
2018-01-12T07:41:17.530Z,1005.2
2018-01-12T07:42:27.512Z,1005.2
2018-01-12T07:43:37.504Z,1005.18
2018-01-12T07:44:47.008Z,1005.24
2018-01-12T07:45:56.723Z,1005.23
2018-01-12T07:47:06.711Z,1005.29
2018-01-12T07:48:16.694Z,1005.31
2018-01-12T07:49:26.414Z,1005.35
2018-01-12T07:50:36.400Z,1005.33
2018-01-12T07:51:46.378Z,1005.34
2018-01-12T07:52:56.355Z,1005.37
2018-01-12T07:54:06.065Z,1005.38
2018-01-12T07:55:15.522Z,1005.37
2018-01-12T07:56:25.509Z,1005.42
2018-01-12T07:57:35.488Z,1005.46
2018-01-12T07:58:45.476Z,1005.47
2018-01-12T07:59:55.454Z,1005.44
2018-01-12T08:01:05.243Z,1005.44
2018-01-12T08:02:15.223Z,1005.47
2018-01-12T08:03:24.945Z,1005.49
2018-01-12T08:04:34.927Z,1005.49
2018-01-12T08:05:44.372Z,1005.54
2018-01-12T08:06:54.080Z,1005.56
2018-01-12T08:08:03.844Z,1005.63
2018-01-12T08:09:13.290Z,1005.62
2018-01-12T08:10:23.263Z,1005.61
2018-01-12T08:11:32.715Z,1005.63
2018-01-12T08:12:42.688Z,1005.59
2018-01-12T08:13:52.664Z,1005.56
2018-01-12T08:15:02.640Z,1005.61
2018-01-12T08:16:12.612Z,1005.61
2018-01-12T08:17:22.331Z,1005.65
2018-01-12T08:18:32.046Z,1005.64
2018-01-12T08:19:42.025Z,1005.64
2018-01-12T08:20:51.740Z,1005.66
2018-01-12T08:22:01.451Z,1005.62
2018-01-12T08:23:11.421Z,1005.65
2018-01-12T08:24:21.128Z,1005.62
2018-01-12T08:25:30.835Z,1005.63
2018-01-12T08:26:40.291Z,1005.68
2018-01-12T08:27:50.269Z,1005.68
2018-01-12T08:29:00.239Z,1005.66
2018-01-12T08:30:10.217Z,1005.67
2018-01-12T08:31:20.254Z,1005.64
2018-01-12T08:32:30.232Z,1005.63
2018-01-12T08:33:39.676Z,1005.67
2018-01-12T08:34:49.650Z,1005.63
2018-01-12T08:35:59.621Z,1005.66
2018-01-12T08:37:09.597Z,1005.67
2018-01-12T08:38:19.567Z,1005.67
2018-01-12T08:39:29.540Z,1005.71
2018-01-12T08:40:39.514Z,1005.73
2018-01-12T08:41:49.485Z,1005.73
2018-01-12T08:42:59.242Z,1005.73
2018-01-12T08:44:08.691Z,1005.73
2018-01-12T08:45:18.668Z,1005.7
2018-01-12T08:46:28.642Z,1005.66
2018-01-12T08:47:38.625Z,1005.7
2018-01-12T08:48:48.601Z,1005.72
2018-01-12T08:49:58.098Z,1005.74
2018-01-12T08:51:07.547Z,1005.69
2018-01-12T08:52:17.260Z,1005.75
2018-01-12T08:53:26.709Z,1005.72
2018-01-12T08:54:36.418Z,1005.7
2018-01-12T08:55:46.130Z,1005.7
2018-01-12T08:56:56.103Z,1005.72
2018-01-12T08:58:05.815Z,1005.69
2018-01-12T08:59:15.260Z,1005.75
2018-01-12T09:00:25.020Z,1005.77
2018-01-12T09:01:35.005Z,1005.8
2018-01-12T09:02:44.721Z,1005.81
2018-01-12T09:03:54.701Z,1005.77
2018-01-12T09:05:04.677Z,1005.77
2018-01-12T09:06:14.122Z,1005.78
2018-01-12T09:07:23.834Z,1005.8
2018-01-12T09:08:33.544Z,1005.8
2018-01-12T09:09:43.525Z,1005.81
2018-01-12T09:10:53.500Z,1005.83
2018-01-12T09:12:03.692Z,1005.83
2018-01-12T09:13:13.138Z,1005.87
2018-01-12T09:14:23.112Z,1005.86
2018-01-12T09:15:32.310Z,1005.84
2018-01-12T09:16:42.019Z,1005.86
2018-01-12T09:17:51.796Z,1005.82
2018-01-12T09:19:01.517Z,1005.8
2018-01-12T09:20:11.502Z,1005.82
2018-01-12T09:21:21.217Z,1005.78
2018-01-12T09:22:30.680Z,1005.84
2018-01-12T09:23:42.194Z,1005.86
2018-01-12T09:24:52.312Z,1005.85
2018-01-12T09:26:02.296Z,1005.81
2018-01-12T09:27:12.269Z,1005.83
2018-01-12T09:28:21.980Z,1005.8
2018-01-12T09:29:31.963Z,1005.85
2018-01-12T09:30:41.678Z,1005.81
2018-01-12T09:31:51.650Z,1005.79
2018-01-12T09:33:01.359Z,1005.79
2018-01-12T09:34:11.333Z,1005.76
2018-01-12T09:35:21.311Z,1005.75
2018-01-12T09:36:31.292Z,1005.78
2018-01-12T09:37:40.736Z,1005.77
2018-01-12T09:38:50.707Z,1005.77
2018-01-12T09:40:00.415Z,1005.81
2018-01-12T09:41:10.125Z,1005.78
2018-01-12T09:42:19.307Z,1005.78
2018-01-12T09:43:29.280Z,1005.81
2018-01-12T09:44:38.460Z,1005.73
2018-01-12T09:45:48.434Z,1005.72
2018-01-12T09:46:58.412Z,1005.78
2018-01-12T09:48:08.386Z,1005.74
2018-01-12T09:49:18.102Z,1005.76
2018-01-12T09:50:27.548Z,1005.76
2018-01-12T09:51:37.556Z,1005.75
2018-01-12T09:52:47.634Z,1005.74
2018-01-12T09:53:57.608Z,1005.81
2018-01-12T09:55:07.336Z,1005.8
2018-01-12T09:56:17.051Z,1005.84
2018-01-12T09:57:26.763Z,1005.86
2018-01-12T09:58:35.944Z,1005.84
2018-01-12T09:59:45.654Z,1005.88
2018-01-12T10:00:55.678Z,1005.88
2018-01-12T10:02:05.661Z,1005.9
2018-01-12T10:03:15.375Z,1005.92
2018-01-12T10:04:25.084Z,1005.98
2018-01-12T10:05:34.534Z,1005.94
2018-01-12T10:06:43.975Z,1005.94
2018-01-12T10:07:53.416Z,1005.96
2018-01-12T10:09:02.867Z,1005.98
2018-01-12T10:10:12.314Z,1006.01
2018-01-12T10:11:22.023Z,1006.08
2018-01-12T10:12:31.728Z,1006.09
2018-01-12T10:13:41.453Z,1006.09
2018-01-12T10:14:50.904Z,1006.07
2018-01-12T10:16:00.925Z,1006.12
2018-01-12T10:17:10.637Z,1006.06
2018-01-12T10:18:20.604Z,1006.11
2018-01-12T10:19:30.339Z,1006.16
2018-01-12T10:20:39.779Z,1006.17
2018-01-12T10:21:49.488Z,1006.17
2018-01-12T10:22:59.191Z,1006.19
2018-01-12T10:24:09.167Z,1006.2
2018-01-12T10:25:19.137Z,1006.19
2018-01-12T10:26:29.104Z,1006.22
2018-01-12T10:27:38.606Z,1006.18
2018-01-12T10:28:48.354Z,1006.23
2018-01-12T10:29:58.326Z,1006.19
2018-01-12T10:31:08.307Z,1006.24
2018-01-12T10:32:17.753Z,1006.22
2018-01-12T10:33:27.558Z,1006.19
2018-01-12T10:34:37.267Z,1006.17
2018-01-12T10:35:46.980Z,1006.17
2018-01-12T10:36:56.960Z,1006.12
2018-01-12T10:38:06.932Z,1006.21
2018-01-12T10:39:16.909Z,1006.19
2018-01-12T10:40:26.622Z,1006.21
2018-01-12T10:41:36.333Z,1006.23
2018-01-12T10:42:46.038Z,1006.24
2018-01-12T10:43:55.748Z,1006.26
2018-01-12T10:45:05.458Z,1006.26
2018-01-12T10:46:15.189Z,1006.28
2018-01-12T10:47:24.955Z,1006.28
2018-01-12T10:48:34.663Z,1006.28
2018-01-12T10:49:44.638Z,1006.27
2018-01-12T10:50:54.606Z,1006.31
2018-01-12T10:52:04.318Z,1006.34
2018-01-12T10:53:13.764Z,1006.3
2018-01-12T10:54:23.737Z,1006.28
2018-01-12T10:55:33.189Z,1006.32
2018-01-12T10:56:43.264Z,1006.35
2018-01-12T10:57:53.236Z,1006.38
2018-01-12T10:59:02.945Z,1006.45
2018-01-12T11:00:12.918Z,1006.43
2018-01-12T11:01:22.577Z,1006.42
2018-01-12T11:02:32.028Z,1006.4
2018-01-12T11:03:41.747Z,1006.41
2018-01-12T11:04:51.717Z,1006.38
2018-01-12T11:06:01.732Z,1006.37
2018-01-12T11:07:11.440Z,1006.39
2018-01-12T11:08:21.154Z,1006.36
2018-01-12T11:09:30.601Z,1006.37
2018-01-12T11:10:40.045Z,1006.41
2018-01-12T11:11:50.026Z,1006.46
2018-01-12T11:12:59.999Z,1006.47
2018-01-12T11:14:09.182Z,1006.42
2018-01-12T11:15:18.898Z,1006.43
2018-01-12T11:16:28.873Z,1006.39
2018-01-12T11:17:38.844Z,1006.38
2018-01-12T11:18:48.556Z,1006.37
2018-01-12T11:19:58.525Z,1006.35
2018-01-12T11:21:07.982Z,1006.42
2018-01-12T11:22:17.745Z,1006.39
2018-01-12T11:23:27.247Z,1006.4
2018-01-12T11:24:36.431Z,1006.4
2018-01-12T11:25:46.458Z,1006.4
2018-01-12T11:26:56.430Z,1006.41
2018-01-12T11:28:06.145Z,1006.44
2018-01-12T11:29:16.116Z,1006.44
2018-01-12T11:30:26.097Z,1006.44
2018-01-12T11:31:36.078Z,1006.46
2018-01-12T11:32:46.053Z,1006.43
2018-01-12T11:33:55.765Z,1006.47
2018-01-12T11:35:05.491Z,1006.42
2018-01-12T11:36:15.203Z,1006.47
2018-01-12T11:37:25.231Z,1006.49
2018-01-12T11:38:34.674Z,1006.42
2018-01-12T11:39:44.387Z,1006.42
2018-01-12T11:40:54.107Z,1006.46
2018-01-12T11:42:04.080Z,1006.48
2018-01-12T11:43:13.890Z,1006.47
2018-01-12T11:44:23.867Z,1006.48
2018-01-12T11:45:33.579Z,1006.5
2018-01-12T11:46:43.291Z,1006.5
2018-01-12T11:47:52.470Z,1006.48
2018-01-12T11:49:02.501Z,1006.46
2018-01-12T11:50:12.214Z,1006.5
2018-01-12T11:51:21.923Z,1006.46
2018-01-12T11:52:31.633Z,1006.53
2018-01-12T11:53:41.605Z,1006.5
2018-01-12T11:54:51.315Z,1006.47
2018-01-12T11:56:01.286Z,1006.49
2018-01-12T11:57:10.469Z,1006.48
2018-01-12T11:58:20.177Z,1006.47
2018-01-12T11:59:30.208Z,1006.47
2018-01-12T12:00:40.188Z,1006.5
2018-01-12T12:01:49.897Z,1006.51
2018-01-12T12:02:59.614Z,1006.52
2018-01-12T12:04:09.588Z,1006.53
2018-01-12T12:05:19.563Z,1006.51
2018-01-12T12:06:29.535Z,1006.56
2018-01-12T12:07:39.256Z,1006.54
2018-01-12T12:08:49.043Z,1006.51
2018-01-12T12:09:58.753Z,1006.52
2018-01-12T12:11:08.204Z,1006.49
2018-01-12T12:12:17.912Z,1006.54
2018-01-12T12:13:27.620Z,1006.53
2018-01-12T12:14:37.340Z,1006.53
2018-01-12T12:15:47.323Z,1006.53
2018-01-12T12:16:57.298Z,1006.51
2018-01-12T12:18:06.533Z,1006.59
2018-01-12T12:19:16.510Z,1006.49
2018-01-12T12:20:26.220Z,1006.56
2018-01-12T12:21:35.671Z,1006.53
2018-01-12T12:22:45.384Z,1006.51
2018-01-12T12:23:54.827Z,1006.53
2018-01-12T12:25:04.536Z,1006.56
2018-01-12T12:26:14.246Z,1006.53
2018-01-12T12:27:24.217Z,1006.52
2018-01-12T12:28:33.937Z,1006.55
2018-01-12T12:29:43.692Z,1006.5
2018-01-12T12:30:53.672Z,1006.55
2018-01-12T12:32:03.643Z,1006.5
2018-01-12T12:33:13.621Z,1006.49
2018-01-12T12:34:23.063Z,1006.53
2018-01-12T12:35:32.773Z,1006.57
2018-01-12T12:36:42.756Z,1006.57
2018-01-12T12:37:52.201Z,1006.6
2018-01-12T12:39:01.928Z,1006.61
2018-01-12T12:40:11.944Z,1006.55
2018-01-12T12:41:21.918Z,1006.57
2018-01-12T12:42:31.894Z,1006.58
2018-01-12T12:43:41.604Z,1006.56
2018-01-12T12:44:51.313Z,1006.61
2018-01-12T12:46:01.287Z,1006.6
2018-01-12T12:47:11.059Z,1006.6
2018-01-12T12:48:21.033Z,1006.65
2018-01-12T12:49:30.741Z,1006.61
2018-01-12T12:50:40.724Z,1006.59
2018-01-12T12:51:50.698Z,1006.62
2018-01-12T12:53:00.405Z,1006.6
2018-01-12T12:54:09.848Z,1006.64
2018-01-12T12:55:19.293Z,1006.58
2018-01-12T12:56:28.786Z,1006.62
2018-01-12T12:57:38.765Z,1006.6
2018-01-12T12:58:48.740Z,1006.6
2018-01-12T12:59:58.451Z,1006.61
2018-01-12T13:01:08.169Z,1006.61
2018-01-12T13:02:17.872Z,1006.6
2018-01-12T13:03:27.843Z,1006.67
2018-01-12T13:04:37.553Z,1006.65
2018-01-12T13:05:47.260Z,1006.63
2018-01-12T13:06:57.238Z,1006.66
2018-01-12T13:08:06.947Z,1006.67
2018-01-12T13:09:16.925Z,1006.66
2018-01-12T13:10:26.733Z,1006.66
2018-01-12T13:11:36.179Z,1006.66
2018-01-12T13:12:45.890Z,1006.68
2018-01-12T13:13:55.598Z,1006.64
2018-01-12T13:15:05.309Z,1006.63
2018-01-12T13:16:14.492Z,1006.65
2018-01-12T13:17:24.465Z,1006.64
2018-01-12T13:18:34.178Z,1006.61
2018-01-12T13:19:44.150Z,1006.65
2018-01-12T13:20:53.858Z,1006.64
2018-01-12T13:22:03.831Z,1006.62
2018-01-12T13:23:13.018Z,1006.61
2018-01-12T13:24:22.989Z,1006.61
2018-01-12T13:25:32.434Z,1006.62
2018-01-12T13:26:42.409Z,1006.63
2018-01-12T13:27:52.382Z,1006.65
2018-01-12T13:29:02.359Z,1006.64
2018-01-12T13:30:12.349Z,1006.67
2018-01-12T13:31:22.068Z,1006.67
2018-01-12T13:32:31.782Z,1006.65
2018-01-12T13:33:41.892Z,1006.67
2018-01-12T13:34:51.601Z,1006.63
2018-01-12T13:36:01.593Z,1006.65
2018-01-12T13:37:11.574Z,1006.66
2018-01-12T13:38:21.598Z,1006.64
2018-01-12T13:39:31.646Z,1006.66
2018-01-12T13:40:41.359Z,1006.67
2018-01-12T13:41:51.087Z,1006.66
2018-01-12T13:43:01.068Z,1006.7
2018-01-12T13:44:10.776Z,1006.75
2018-01-12T13:45:20.320Z,1006.74
2018-01-12T13:46:30.292Z,1006.77
2018-01-12T13:47:40.274Z,1006.78
2018-01-12T13:48:50.251Z,1006.78
2018-01-12T13:49:59.968Z,1006.81
2018-01-12T13:51:09.947Z,1006.86
2018-01-12T13:52:19.936Z,1006.82
2018-01-12T13:53:29.645Z,1006.82
2018-01-12T13:54:39.360Z,1006.8
2018-01-12T13:55:49.068Z,1006.83
2018-01-12T13:56:59.092Z,1006.87
2018-01-12T13:58:08.539Z,1006.83
2018-01-12T13:59:18.247Z,1006.84
2018-01-12T14:00:28.226Z,1006.89
2018-01-12T14:01:37.942Z,1006.85
2018-01-12T14:02:47.486Z,1006.86
2018-01-12T14:03:57.199Z,1006.85
2018-01-12T14:05:06.970Z,1006.87
2018-01-12T14:06:16.943Z,1006.89
2018-01-12T14:07:26.688Z,1006.92
2018-01-12T14:08:36.769Z,1006.9
2018-01-12T14:09:46.494Z,1006.9
2018-01-12T14:10:56.472Z,1006.92
2018-01-12T14:12:06.446Z,1006.94